Pagina principale
METAR-TAF:

METAR-TAF

Aeroporti :

Aeroporto di Amendola

Foggia, Italia

latitudine: 41-32N, longitudine: 015-43E, altezza: 57 m

METAR: mancante

Ora: 21:34 (19:34 UTC)

Previsione

Il bollettino è stato emesso 26 ore e 34 minuti fa, alle 17:00 UTC
Previsione valida dal 22 alle 18 UTC al 23 alle 03 UTC
Vento 14 kt da ovest
Visibilità 10 km o più
Nubi sparse ad un'altezza di 2000 ft
Nubi sparse ad un'altezza di 5000 ft
Evoluzione graduale
dal 22 alle 19 UTC al 22 alle 21 UTC
Vento 20 kt da nord-ovest con raffiche fino a 35 kt
Visibilità: 4000 m
Nubi sparse ad un'altezza di 1000 ft, Cumulonembo.
Nuvoloso ad un'altezza di 2000 ft
temporale, pioggia

TAF: LIBA 221700Z 2218/2303 26014KT 9999 SCT020 SCT050 BECMG 2219/2221 31020G35KT 4000 TSRA SCT010CB BKN020

Osservazioni e previsioni meteorologiche di più di 4000 aeroporti (messaggi METAR e TAF).

Le stazioni disponibili sono rappresentate dai dischi gialli e rossi sulla carta.

Puntare il mouse per vedere il nome della stazione.

Clicca sopra per visualizzare le osservazioni e previsioni meteorologiche.

Per cambiare la mappa : fare clic sui pulsanti verdi con una croce nera per ingrandire, il pulsante verde con un trattino per diminuire, o sulla freccia verde per le mappe adiacenti.


METAR-TAF: